Time;durP1;ratioP1;P1;durP2;ratioP2;P2;SDS_P1;SDS_P2;PMS_P1;PMS_P2;Temp;Humidity;BMP_temperature;BMP_pressure;BME280_temperature;BME280_humidity;BME280_pressure;Samples;Min_cycle;Max_cycle;Signal;HPM_P1;HPM_P2
2023/01/16 00:01:25;;;;;;;1.65;0.88;;;20.90;73.50;;;;;;4828421;29;20328;-75
2023/01/16 00:03:51;;;;;;;1.65;0.73;;;20.90;73.70;;;;;;4831042;29;20205;-76
2023/01/16 00:06:18;;;;;;;7.43;1.30;;;20.90;73.70;;;;;;4829009;29;20217;-76
2023/01/16 00:08:46;;;;;;;2.00;0.90;;;20.90;73.60;;;;;;4828506;29;20211;-76
2023/01/16 00:11:13;;;;;;;0.95;0.70;;;20.90;73.70;;;;;;4828440;29;20212;-77
2023/01/16 00:13:42;;;;;;;2.53;0.80;;;20.80;73.80;;;;;;4827885;29;20359;-76
2023/01/16 00:16:09;;;;;;;1.63;0.90;;;20.80;73.70;;;;;;4828645;29;20262;-76
2023/01/16 00:18:35;;;;;;;1.00;0.70;;;20.80;73.50;;;;;;4830405;29;20271;-76
2023/01/16 00:21:03;;;;;;;2.28;0.90;;;20.80;73.50;;;;;;4829302;29;20208;-76
2023/01/16 00:23:30;;;;;;;1.00;0.77;;;20.90;73.20;;;;;;4831887;29;20212;-76
2023/01/16 00:25:56;;;;;;;2.65;1.17;;;21.00;72.80;;;;;;4830172;29;20607;-76
2023/01/16 00:28:23;;;;;;;1.65;0.90;;;21.10;72.70;;;;;;4828601;29;20212;-76
2023/01/16 00:30:51;;;;;;;2.55;1.35;;;21.10;73.50;;;;;;4826799;29;20215;-75
2023/01/16 00:33:19;;;;;;;1.05;0.80;;;21.00;72.40;;;;;;4828342;29;20281;-79
2023/01/16 00:35:47;;;;;;;1.17;0.77;;;21.00;72.50;;;;;;4827802;29;20619;-77
2023/01/16 00:38:13;;;;;;;1.42;0.77;;;21.00;72.60;;;;;;4828099;29;20208;-76
2023/01/16 00:40:40;;;;;;;1.23;0.80;;;20.90;72.70;;;;;;4827996;29;20314;-76
2023/01/16 00:43:07;;;;;;;1.10;0.82;;;20.90;72.70;;;;;;4827302;29;20216;-76
2023/01/16 00:45:34;;;;;;;0.93;0.70;;;20.90;72.80;;;;;;4825615;29;20777;-76
2023/01/16 00:48:02;;;;;;;1.52;0.93;;;20.90;72.70;;;;;;4828576;29;20216;-76
2023/01/16 00:50:28;;;;;;;1.48;0.70;;;21.00;72.40;;;;;;4827454;29;20696;-77
2023/01/16 00:52:55;;;;;;;1.08;0.73;;;21.00;72.20;;;;;;4827497;29;20208;-76
2023/01/16 00:55:22;;;;;;;1.13;0.90;;;21.00;72.10;;;;;;4830714;29;20209;-76
2023/01/16 00:57:48;;;;;;;1.23;0.70;;;21.00;72.10;;;;;;4826510;29;20274;-76
2023/01/16 01:00:17;;;;;;;1.27;0.70;;;21.10;72.10;;;;;;4828666;29;20269;-76
2023/01/16 01:02:44;;;;;;;0.80;0.60;;;21.00;72.20;;;;;;4825084;29;20676;-76
2023/01/16 01:05:12;;;;;;;1.05;0.73;;;20.90;72.30;;;;;;4828523;29;20208;-76
2023/01/16 01:07:39;;;;;;;4.43;0.80;;;20.90;72.50;;;;;;4826337;29;20220;-76
2023/01/16 01:10:06;;;;;;;0.90;0.80;;;20.80;72.50;;;;;;4825209;29;20216;-76
2023/01/16 01:12:33;;;;;;;1.15;0.77;;;20.90;72.60;;;;;;4824240;29;20211;-76
2023/01/16 01:14:59;;;;;;;0.90;0.80;;;21.00;72.30;;;;;;4828833;29;20481;-76
2023/01/16 01:17:26;;;;;;;1.73;0.70;;;21.00;72.10;;;;;;4826131;29;20770;-76
2023/01/16 01:19:53;;;;;;;1.48;0.80;;;21.00;71.90;;;;;;4828558;29;20213;-76
2023/01/16 01:22:21;;;;;;;1.40;0.75;;;21.00;71.90;;;;;;4827684;29;20250;-76
2023/01/16 01:24:49;;;;;;;1.23;0.70;;;21.00;72.00;;;;;;4828932;29;20219;-76
2023/01/16 01:27:16;;;;;;;1.00;0.70;;;21.00;72.00;;;;;;4827989;29;20592;-76
2023/01/16 01:29:43;;;;;;;1.25;0.93;;;21.00;71.70;;;;;;4826434;29;20213;-76
2023/01/16 01:32:10;;;;;;;2.35;0.82;;;21.00;72.60;;;;;;4824959;29;20210;-76
2023/01/16 01:34:37;;;;;;;1.05;0.75;;;20.90;72.10;;;;;;4825165;29;20240;-75
2023/01/16 01:37:05;;;;;;;1.00;0.70;;;20.80;72.30;;;;;;4827790;29;20286;-76
2023/01/16 01:39:33;;;;;;;1.20;0.90;;;20.90;72.20;;;;;;4827393;29;20249;-76
2023/01/16 01:44:50;;;;;;;3.47;0.80;;;21.00;71.80;;;;;;4827854;29;20211;-76
2023/01/16 01:47:20;;;;;;;0.90;0.70;;;21.00;71.80;;;;;;4825736;29;20220;-76
2023/01/16 01:49:48;;;;;;;1.10;0.73;;;21.00;71.80;;;;;;4828310;29;20213;-75
2023/01/16 01:52:15;;;;;;;4.43;0.90;;;21.00;71.80;;;;;;4826089;29;20321;-76
2023/01/16 01:54:46;;;;;;;0.90;0.70;;;21.00;71.80;;;;;;4827327;29;20325;-76
2023/01/16 01:57:18;;;;;;;1.20;0.90;;;21.00;71.40;;;;;;4826244;29;20204;-75
2023/01/16 01:59:50;;;;;;;3.75;1.45;;;21.00;71.40;;;;;;4828444;29;20637;-76
2023/01/16 02:02:22;;;;;;;1.00;0.60;;;21.00;72.20;;;;;;4821720;29;20212;-75
2023/01/16 02:04:51;;;;;;;0.80;0.60;;;21.00;71.50;;;;;;4822200;29;20430;-76
2023/01/16 02:07:20;;;;;;;1.02;0.70;;;21.00;71.60;;;;;;4826407;29;20617;-76
2023/01/16 02:09:49;;;;;;;1.00;0.70;;;21.00;71.50;;;;;;4825745;29;20205;-76
2023/01/16 02:12:17;;;;;;;1.60;0.95;;;21.00;71.60;;;;;;4826591;29;20209;-75
2023/01/16 02:14:48;;;;;;;2.15;1.13;;;21.00;71.50;;;;;;4828120;29;20225;-75
2023/01/16 02:20:16;;;;;;;0.90;0.70;;;21.00;71.10;;;;;;4824493;29;20242;-76
2023/01/16 02:23:11;;;;;;;1.02;0.80;;;21.00;71.10;;;;;;4826700;29;20272;-76
2023/01/16 02:26:06;;;;;;;1.13;0.80;;;21.00;71.20;;;;;;4818834;29;20609;-76
2023/01/16 02:29:07;;;;;;;0.90;0.68;;;21.00;71.30;;;;;;4826399;29;20209;-76
2023/01/16 02:31:41;;;;;;;1.52;0.80;;;21.00;71.40;;;;;;4824750;29;20215;-76
2023/01/16 02:34:24;;;;;;;1.90;0.70;;;20.90;71.20;;;;;;4825239;29;20228;-75
2023/01/16 02:37:00;;;;;;;1.00;0.70;;;21.00;71.30;;;;;;4824649;29;20211;-76
2023/01/16 02:39:43;;;;;;;1.20;0.70;;;21.00;71.40;;;;;;4825216;29;20216;-77
2023/01/16 02:42:21;;;;;;;1.40;0.80;;;21.00;71.00;;;;;;4826149;29;20308;-75
2023/01/16 02:44:54;;;;;;;1.73;0.70;;;21.00;71.00;;;;;;4825496;29;20211;-76
2023/01/16 02:47:26;;;;;;;0.95;0.82;;;21.00;71.10;;;;;;4824638;29;20212;-76
2023/01/16 02:50:03;;;;;;;1.08;0.70;;;21.00;71.00;;;;;;4826223;29;20303;-76
2023/01/16 02:52:38;;;;;;;0.93;0.80;;;21.00;71.00;;;;;;4823472;29;20216;-75
2023/01/16 02:55:11;;;;;;;1.10;0.80;;;21.00;71.20;;;;;;4826324;29;20235;-75
2023/01/16 02:57:44;;;;;;;1.25;0.70;;;21.00;71.20;;;;;;4825478;29;20208;-76
2023/01/16 03:00:13;;;;;;;0.88;0.63;;;21.00;71.20;;;;;;4823512;29;20249;-75
2023/01/16 03:02:41;;;;;;;0.98;0.77;;;20.90;71.10;;;;;;4826003;29;20245;-76
2023/01/16 03:05:08;;;;;;;1.23;0.90;;;21.00;71.00;;;;;;4824105;29;20205;-75
2023/01/16 03:08:03;;;;;;;0.90;0.70;;;21.00;71.00;;;;;;4826302;29;20209;-76
2023/01/16 03:11:04;;;;;;;1.00;0.70;;;21.00;71.00;;;;;;4824381;29;20212;-75
2023/01/16 03:13:46;;;;;;;1.20;0.70;;;21.00;71.00;;;;;;4823795;29;20210;-76
2023/01/16 03:16:23;;;;;;;1.23;0.80;;;21.00;71.00;;;;;;4825718;29;20212;-75
2023/01/16 03:18:56;;;;;;;1.20;0.80;;;21.00;71.00;;;;;;4825339;29;21117;-76
2023/01/16 03:21:33;;;;;;;1.48;0.85;;;21.00;71.00;;;;;;4827348;29;20314;-75
2023/01/16 03:24:08;;;;;;;0.90;0.80;;;20.90;71.10;;;;;;4829281;29;20210;-76
2023/01/16 03:26:40;;;;;;;1.27;0.80;;;20.80;71.30;;;;;;4829487;29;20210;-75
2023/01/16 03:29:11;;;;;;;1.00;0.70;;;20.80;71.50;;;;;;4828218;29;20298;-75
2023/01/16 03:31:42;;;;;;;1.20;0.80;;;20.70;71.50;;;;;;4829040;29;20678;-76
2023/01/16 03:34:20;;;;;;;1.00;0.77;;;20.80;71.40;;;;;;4828655;29;20542;-76
2023/01/16 03:36:52;;;;;;;1.05;0.70;;;20.90;71.20;;;;;;4828295;29;20281;-77
2023/01/16 03:39:23;;;;;;;0.88;0.60;;;20.90;71.00;;;;;;4829445;29;20213;-75
2023/01/16 03:41:53;;;;;;;1.00;0.60;;;20.90;70.90;;;;;;4830341;29;20215;-74
2023/01/16 03:44:28;;;;;;;1.00;0.70;;;20.90;70.90;;;;;;4828777;29;20214;-75
2023/01/16 03:46:56;;;;;;;0.85;0.60;;;20.90;70.90;;;;;;4828787;29;20659;-74
2023/01/16 03:49:28;;;;;;;1.15;0.75;;;20.80;70.90;;;;;;4827844;29;20261;-74
2023/01/16 03:51:59;;;;;;;1.15;0.68;;;20.80;71.20;;;;;;4826451;29;20702;-75
2023/01/16 03:54:35;;;;;;;1.25;0.73;;;20.70;71.40;;;;;;4829464;29;20225;-74
2023/01/16 03:57:10;;;;;;;0.90;0.70;;;20.80;71.50;;;;;;4827598;29;20204;-75
2023/01/16 03:59:44;;;;;;;0.90;0.60;;;20.80;71.50;;;;;;4830500;29;20238;-74
2023/01/16 04:02:15;;;;;;;0.85;0.65;;;20.90;71.00;;;;;;4828705;29;20273;-75
2023/01/16 04:04:49;;;;;;;0.90;0.70;;;20.90;71.00;;;;;;4830028;29;20715;-75
2023/01/16 04:07:21;;;;;;;0.90;0.60;;;20.90;70.90;;;;;;4826705;29;20603;-75
2023/01/16 04:09:54;;;;;;;0.90;0.70;;;20.90;70.90;;;;;;4828029;29;20524;-75
2023/01/16 04:12:23;;;;;;;1.25;0.73;;;20.90;70.80;;;;;;4827431;29;20278;-75
2023/01/16 04:14:56;;;;;;;1.13;0.73;;;20.80;71.00;;;;;;4829151;29;20874;-75
2023/01/16 04:17:24;;;;;;;0.90;0.60;;;20.70;71.10;;;;;;4826823;29;20204;-75
2023/01/16 04:19:52;;;;;;;0.80;0.60;;;20.70;71.30;;;;;;4828945;29;20699;-75
2023/01/16 04:22:21;;;;;;;1.08;0.80;;;20.80;71.20;;;;;;4826155;29;20216;-74
2023/01/16 04:24:49;;;;;;;0.90;0.70;;;20.80;70.90;;;;;;4829486;29;20749;-74
2023/01/16 04:27:16;;;;;;;1.13;0.68;;;20.90;70.90;;;;;;4827199;29;20274;-75
2023/01/16 04:29:42;;;;;;;0.95;0.77;;;20.90;70.90;;;;;;4826724;29;20221;-74
2023/01/16 04:32:09;;;;;;;0.93;0.63;;;20.80;70.80;;;;;;4827908;29;20683;-75
2023/01/16 04:34:36;;;;;;;1.00;0.60;;;20.80;70.90;;;;;;4829079;29;20434;-74
2023/01/16 04:37:04;;;;;;;0.90;0.70;;;20.80;70.80;;;;;;4826289;29;20685;-75
2023/01/16 04:39:31;;;;;;;0.90;0.68;;;20.90;70.60;;;;;;4828468;29;20216;-75
2023/01/16 04:41:58;;;;;;;0.90;0.60;;;20.90;70.50;;;;;;4827893;29;20224;-75
2023/01/16 04:44:25;;;;;;;1.75;0.60;;;20.90;70.60;;;;;;4824911;29;20622;-75
2023/01/16 04:46:53;;;;;;;0.88;0.60;;;20.90;70.50;;;;;;4827799;29;20213;-75
2023/01/16 04:49:20;;;;;;;0.80;0.60;;;20.90;70.60;;;;;;4828134;29;20223;-75
2023/01/16 04:51:47;;;;;;;1.13;0.70;;;20.90;70.60;;;;;;4823204;29;20212;-74
2023/01/16 04:54:17;;;;;;;1.10;0.70;;;20.90;70.70;;;;;;4827964;29;20261;-74
2023/01/16 04:56:44;;;;;;;1.38;0.75;;;20.90;70.60;;;;;;4827577;29;20609;-74
2023/01/16 04:59:12;;;;;;;0.80;0.60;;;20.90;70.40;;;;;;4828657;29;20224;-74
2023/01/16 05:01:39;;;;;;;0.82;0.60;;;20.90;70.40;;;;;;4825880;29;20743;-74
2023/01/16 05:04:08;;;;;;;0.90;0.60;;;20.90;70.40;;;;;;4827499;29;20245;-74
2023/01/16 05:06:35;;;;;;;0.90;0.70;;;20.90;70.40;;;;;;4827096;29;20273;-74
2023/01/16 05:09:03;;;;;;;0.90;0.65;;;20.90;70.50;;;;;;4828442;29;20220;-75
2023/01/16 05:11:31;;;;;;;1.10;0.75;;;20.90;70.50;;;;;;4825485;29;20212;-74
2023/01/16 05:13:58;;;;;;;0.90;0.63;;;20.90;71.20;;;;;;4829469;29;20206;-74
2023/01/16 05:16:25;;;;;;;0.90;0.60;;;20.90;70.60;;;;;;4824561;29;20790;-74
2023/01/16 05:18:52;;;;;;;1.00;0.60;;;20.90;70.50;;;;;;4828665;29;21161;-75
2023/01/16 05:21:18;;;;;;;1.00;0.70;;;20.80;70.50;;;;;;4827394;29;20264;-75
2023/01/16 05:23:45;;;;;;;1.70;0.80;;;20.90;70.30;;;;;;4826833;29;20625;-75
2023/01/16 05:26:13;;;;;;;0.90;0.60;;;20.90;70.30;;;;;;4826829;29;20207;-76
2023/01/16 05:28:41;;;;;;;0.90;0.68;;;20.90;71.10;;;;;;4826544;29;20637;-76
2023/01/16 05:31:07;;;;;;;0.80;0.60;;;20.90;70.40;;;;;;4825238;29;20268;-76
2023/01/16 05:33:34;;;;;;;0.80;0.60;;;20.80;70.40;;;;;;4826126;29;20224;-75
2023/01/16 05:36:01;;;;;;;0.75;0.57;;;20.90;70.40;;;;;;4827518;29;20703;-75
2023/01/16 05:38:27;;;;;;;0.90;0.60;;;20.90;70.40;;;;;;4829490;29;20216;-75
2023/01/16 05:40:54;;;;;;;0.85;0.60;;;20.80;70.30;;;;;;4827137;29;20204;-75
2023/01/16 05:43:22;;;;;;;1.00;0.70;;;20.90;70.40;;;;;;4826364;29;20634;-76
2023/01/16 05:45:50;;;;;;;0.80;0.65;;;20.80;70.40;;;;;;4825643;29;20229;-76
2023/01/16 05:48:16;;;;;;;0.80;0.60;;;20.70;70.70;;;;;;4826923;29;20234;-76
2023/01/16 05:50:43;;;;;;;1.20;1.05;;;20.70;70.70;;;;;;4827342;29;20603;-76
2023/01/16 05:53:10;;;;;;;1.20;0.70;;;20.70;70.70;;;;;;4827423;29;20217;-76
2023/01/16 05:55:41;;;;;;;0.82;0.63;;;20.80;70.50;;;;;;4826159;29;20228;-75
2023/01/16 05:58:09;;;;;;;0.90;0.70;;;20.80;70.40;;;;;;4828252;29;20218;-75
2023/01/16 06:00:36;;;;;;;0.90;0.60;;;20.80;70.40;;;;;;4825333;29;20712;-75
2023/01/16 06:03:04;;;;;;;0.70;0.50;;;20.80;70.50;;;;;;4825882;29;20212;-75
2023/01/16 06:05:31;;;;;;;1.00;0.80;;;20.70;71.50;;;;;;4825417;29;20219;-75
2023/01/16 06:07:58;;;;;;;0.95;0.60;;;20.70;70.70;;;;;;4827790;29;20274;-75
2023/01/16 06:10:26;;;;;;;0.80;0.63;;;20.60;70.70;;;;;;4825216;29;20216;-75
2023/01/16 06:12:52;;;;;;;1.05;0.70;;;20.60;70.80;;;;;;4826797;29;20203;-75
2023/01/16 06:15:19;;;;;;;0.80;0.60;;;20.60;70.90;;;;;;4827542;29;20695;-75
2023/01/16 06:17:46;;;;;;;1.00;0.60;;;20.50;71.00;;;;;;4826678;29;20963;-76
2023/01/16 06:20:14;;;;;;;0.80;0.60;;;20.40;71.10;;;;;;4827512;29;20211;-76
2023/01/16 06:22:41;;;;;;;0.80;0.60;;;20.50;71.20;;;;;;4824563;29;20212;-75
2023/01/16 06:25:08;;;;;;;1.00;0.80;;;20.50;70.90;;;;;;4825825;29;20208;-75
2023/01/16 06:27:35;;;;;;;0.80;0.60;;;20.50;70.80;;;;;;4826247;29;21957;-75
2023/01/16 06:30:02;;;;;;;0.90;0.60;;;20.40;71.00;;;;;;4826977;29;20208;-75
2023/01/16 06:32:29;;;;;;;1.10;0.70;;;20.30;71.30;;;;;;4825489;29;20204;-76
2023/01/16 06:34:55;;;;;;;1.13;0.73;;;20.40;71.20;;;;;;4826604;29;20293;-76
2023/01/16 06:37:23;;;;;;;0.90;0.80;;;20.60;70.60;;;;;;4824260;29;20214;-76
2023/01/16 06:39:50;;;;;;;1.00;0.60;;;20.80;70.00;;;;;;4826283;29;20211;-75
2023/01/16 06:42:17;;;;;;;0.90;0.70;;;20.90;69.80;;;;;;4826962;29;20212;-75
2023/01/16 06:44:44;;;;;;;0.95;0.65;;;21.10;69.50;;;;;;4825777;29;20216;-75
2023/01/16 06:47:10;;;;;;;1.40;0.88;;;21.20;69.10;;;;;;4826346;29;20502;-75
2023/01/16 06:49:37;;;;;;;0.90;0.60;;;21.30;68.90;;;;;;4826080;29;20208;-76
2023/01/16 06:52:04;;;;;;;0.82;0.60;;;21.40;68.60;;;;;;4824378;29;20212;-77
2023/01/16 06:54:32;;;;;;;0.70;0.50;;;21.50;68.50;;;;;;4829243;29;20531;-77
2023/01/16 06:56:59;;;;;;;0.80;0.60;;;21.50;68.20;;;;;;4826464;29;20227;-75
2023/01/16 06:59:26;;;;;;;0.80;0.60;;;21.60;68.00;;;;;;4826260;29;20234;-77
2023/01/16 07:01:53;;;;;;;0.80;0.60;;;21.70;67.90;;;;;;4825146;29;20687;-77
2023/01/16 07:04:20;;;;;;;1.00;0.60;;;21.70;67.70;;;;;;4825035;29;20377;-77
2023/01/16 07:06:48;;;;;;;0.80;0.60;;;21.80;67.60;;;;;;4823805;29;20540;-77
2023/01/16 07:09:15;;;;;;;0.88;0.68;;;21.80;67.50;;;;;;4826256;29;20229;-76
2023/01/16 07:11:43;;;;;;;0.90;0.70;;;21.90;67.40;;;;;;4825331;29;20205;-76
2023/01/16 07:22:38;;;;;;;0.90;0.60;;;22.00;66.90;;;;;;4825468;29;20230;-77
2023/01/16 07:25:09;;;;;;;0.90;0.68;;;22.10;66.90;;;;;;4824379;29;20230;-77
2023/01/16 07:27:38;;;;;;;0.80;0.60;;;22.00;66.90;;;;;;4824575;29;20265;-77
2023/01/16 07:30:06;;;;;;;1.00;0.70;;;22.00;67.00;;;;;;4827001;29;20210;-77
2023/01/16 07:32:32;;;;;;;1.08;0.75;;;22.10;66.90;;;;;;4820576;29;20274;-75
2023/01/16 07:34:59;;;;;;;0.90;0.65;;;22.10;66.70;;;;;;4824374;29;22344;-76
2023/01/16 07:37:26;;;;;;;0.77;0.57;;;22.10;66.60;;;;;;4824685;29;20212;-76
2023/01/16 07:39:52;;;;;;;0.90;0.60;;;22.10;66.70;;;;;;4827071;29;20217;-76
2023/01/16 07:42:19;;;;;;;0.88;0.68;;;22.10;66.90;;;;;;4825232;29;20213;-76
2023/01/16 07:44:47;;;;;;;1.00;0.70;;;22.00;67.00;;;;;;4826595;29;20217;-75
2023/01/16 07:47:14;;;;;;;0.80;0.60;;;21.90;67.10;;;;;;4824769;29;20210;-75
2023/01/16 07:49:40;;;;;;;1.08;0.80;;;21.90;67.20;;;;;;4826077;29;20213;-74
2023/01/16 07:52:07;;;;;;;0.90;0.60;;;21.90;67.00;;;;;;4825383;29;20209;-75
2023/01/16 07:54:35;;;;;;;1.00;0.70;;;22.00;67.00;;;;;;4826212;29;20240;-74
2023/01/16 07:57:02;;;;;;;2.03;1.15;;;22.00;66.90;;;;;;4824456;29;20356;-74
2023/01/16 07:59:29;;;;;;;0.90;0.70;;;22.00;66.90;;;;;;4826545;29;20233;-76
2023/01/16 08:01:57;;;;;;;1.10;0.73;;;22.10;66.80;;;;;;4821626;29;20222;-76
2023/01/16 08:04:24;;;;;;;0.75;0.50;;;22.10;66.70;;;;;;4824201;29;20645;-75
2023/01/16 08:06:50;;;;;;;1.00;0.70;;;22.10;66.60;;;;;;4826205;29;20592;-77
2023/01/16 08:09:17;;;;;;;0.80;0.60;;;22.10;66.80;;;;;;4829844;29;20213;-76
2023/01/16 08:11:46;;;;;;;0.95;0.68;;;22.10;66.80;;;;;;4826936;29;20217;-77
2023/01/16 08:14:14;;;;;;;1.90;0.90;;;22.00;66.80;;;;;;4829183;29;20708;-76
2023/01/16 08:16:41;;;;;;;0.80;0.60;;;22.00;66.80;;;;;;4831846;29;20644;-89
2023/01/16 08:19:09;;;;;;;0.90;0.70;;;21.90;66.80;;;;;;4832463;29;20209;-82
2023/01/16 08:21:36;;;;;;;2.08;1.23;;;21.90;67.00;;;;;;4832805;29;20937;-78
2023/01/16 08:24:03;;;;;;;1.67;0.90;;;21.90;67.10;;;;;;4833737;29;20209;-78
2023/01/16 08:26:30;;;;;;;2.70;0.60;;;21.90;67.10;;;;;;4835655;29;20725;-76
2023/01/16 08:28:57;;;;;;;2.25;0.80;;;21.90;64.70;;;;;;4833694;29;20265;-79
2023/01/16 08:31:24;;;;;;;1.15;0.75;;;21.90;66.90;;;;;;4833307;29;20214;-77
2023/01/16 08:33:51;;;;;;;2.75;0.88;;;22.00;67.00;;;;;;4835377;29;20745;-81
2023/01/16 08:36:20;;;;;;;4.13;0.75;;;22.00;66.90;;;;;;4837360;29;20247;-79
2023/01/16 08:38:47;;;;;;;1.20;0.70;;;21.90;67.30;;;;;;4831209;29;20595;-79
2023/01/16 08:52:14;;;;;;;1.05;0.70;;;22.10;66.90;;;;;;4830359;29;20216;-80
2023/01/16 08:54:40;;;;;;;1.65;1.08;;;22.10;66.90;;;;;;4832933;29;20311;-80
2023/01/16 08:57:07;;;;;;;1.35;0.70;;;22.10;66.80;;;;;;4829350;29;20225;-80
2023/01/16 08:59:34;;;;;;;2.97;0.73;;;22.20;66.70;;;;;;4831299;29;20251;-79
2023/01/16 09:02:01;;;;;;;1.10;0.70;;;22.20;66.70;;;;;;4828077;29;20474;-79
2023/01/16 09:04:28;;;;;;;4.63;0.77;;;22.20;66.70;;;;;;4832931;29;20205;-80
2023/01/16 09:06:55;;;;;;;1.00;0.77;;;22.20;66.50;;;;;;4834379;29;20461;-80
2023/01/16 09:09:24;;;;;;;1.00;0.70;;;22.20;66.40;;;;;;4833621;29;20212;-80
2023/01/16 09:14:40;;;;;;;1.40;0.90;;;22.20;66.40;;;;;;4829790;29;20829;-79
2023/01/16 09:17:07;;;;;;;1.27;0.93;;;22.20;66.40;;;;;;4831561;29;20821;-79
2023/01/16 09:19:34;;;;;;;0.82;0.60;;;22.20;66.30;;;;;;4834372;29;20474;-80
2023/01/16 09:22:01;;;;;;;1.67;0.80;;;22.20;66.30;;;;;;4831326;29;20221;-80
2023/01/16 09:24:29;;;;;;;4.17;1.10;;;22.20;66.40;;;;;;4832378;29;20474;-79
2023/01/16 09:26:56;;;;;;;1.97;0.70;;;22.10;66.60;;;;;;4832136;29;21330;-80
2023/01/16 09:29:23;;;;;;;0.80;0.60;;;22.00;66.70;;;;;;4832498;29;20469;-79
2023/01/16 09:31:49;;;;;;;1.40;0.90;;;22.00;66.90;;;;;;4829651;29;20206;-79
2023/01/16 09:34:16;;;;;;;1.30;0.70;;;21.90;67.20;;;;;;4832285;29;20581;-79
2023/01/16 09:36:44;;;;;;;1.83;0.75;;;21.80;67.30;;;;;;4829945;29;20624;-80
2023/01/16 09:39:11;;;;;;;1.30;0.82;;;21.70;67.50;;;;;;4831128;29;20214;-79
2023/01/16 09:44:31;;;;;;;1.20;0.80;;;21.60;67.90;;;;;;4830882;29;20627;-80
2023/01/16 09:46:59;;;;;;;1.10;0.73;;;21.70;67.70;;;;;;4832151;29;20211;-80
2023/01/16 09:49:32;;;;;;;1.33;0.80;;;21.80;67.50;;;;;;4833008;29;20673;-80
2023/01/16 10:00:36;;;;;;;1.23;0.77;;;22.20;66.40;;;;;;4811345;29;20502;-80
2023/01/16 10:03:04;;;;;;;0.90;0.73;;;22.30;66.20;;;;;;4827418;29;20808;-79
2023/01/16 10:05:36;;;;;;;1.30;1.00;;;22.30;66.00;;;;;;4829716;29;20569;-79
2023/01/16 10:08:12;;;;;;;1.17;0.88;;;22.30;65.90;;;;;;4829431;29;20891;-79
2023/01/16 10:10:44;;;;;;;0.90;0.80;;;22.40;66.00;;;;;;4829479;29;20699;-80
2023/01/16 10:16:20;;;;;;;2.35;0.90;;;22.40;65.70;;;;;;5064211;27;21052;-37
2023/01/16 10:18:54;;;;;;;1.10;0.77;;;22.40;65.80;;;;;;5055919;28;20204;-36
2023/01/16 10:21:49;;;;;;;1.83;1.00;;;22.40;65.90;;;;;;5054785;28;20511;-37
2023/01/16 10:24:25;;;;;;;3.05;1.10;;;22.40;65.70;;;;;;5054782;28;20257;-37
2023/01/16 10:26:57;;;;;;;3.87;0.80;;;22.50;65.70;;;;;;5059402;28;20318;-36
2023/01/16 10:29:30;;;;;;;1.80;0.93;;;22.50;65.50;;;;;;5058623;28;20547;-36
2023/01/16 10:32:03;;;;;;;2.22;0.90;;;22.10;63.10;;;;;;5054663;28;20451;-36
2023/01/16 10:34:34;;;;;;;10.77;1.13;;;22.00;66.10;;;;;;5057528;28;20232;-37
2023/01/16 10:37:01;;;;;;;1.83;0.90;;;22.10;66.10;;;;;;5049762;28;20479;-42
2023/01/16 10:39:32;;;;;;;3.17;1.00;;;22.30;65.80;;;;;;5056621;28;20516;-40
2023/01/16 10:50:30;;;;;;;3.17;1.00;;;23.20;64.50;;;;;;5056080;28;20524;-40
2023/01/16 10:52:57;;;;;;;1.30;0.77;;;23.30;64.30;;;;;;5056336;28;20251;-41
2023/01/16 10:55:24;;;;;;;2.33;1.03;;;23.40;64.20;;;;;;5056553;28;20224;-42
2023/01/16 10:57:53;;;;;;;1.40;0.90;;;23.50;64.10;;;;;;5055555;28;20520;-41
2023/01/16 11:00:25;;;;;;;1.60;0.93;;;23.40;64.00;;;;;;5050371;28;20596;-39
2023/01/16 11:02:54;;;;;;;5.50;0.93;;;23.40;64.30;;;;;;5055173;28;20591;-39
2023/01/16 11:05:26;;;;;;;1.70;0.80;;;23.30;64.50;;;;;;5048934;28;20472;-39
2023/01/16 11:07:54;;;;;;;1.30;0.90;;;23.30;64.60;;;;;;5052034;28;20568;-39
2023/01/16 11:10:22;;;;;;;1.70;0.90;;;23.30;64.80;;;;;;5052731;28;20504;-41
2023/01/16 11:18:31;;;;;;;1.10;0.77;;;23.30;65.00;;;;;;5052970;28;20223;-38
2023/01/16 11:21:01;;;;;;;1.45;0.70;;;23.20;65.10;;;;;;5050345;28;20213;-38
2023/01/16 11:23:38;;;;;;;1.57;0.90;;;23.30;65.10;;;;;;5053082;28;20194;-37
2023/01/16 11:26:06;;;;;;;1.00;0.70;;;23.30;65.10;;;;;;5047814;28;20483;-39
2023/01/16 11:28:35;;;;;;;1.00;0.77;;;23.40;65.10;;;;;;5040374;28;20457;-38
2023/01/16 11:31:03;;;;;;;1.83;0.97;;;23.40;64.90;;;;;;5038683;28;20467;-39
2023/01/16 11:33:35;;;;;;;1.00;0.70;;;23.40;65.70;;;;;;5038982;28;20467;-38
2023/01/16 11:36:04;;;;;;;1.57;1.00;;;23.40;65.20;;;;;;5039409;28;20487;-38
2023/01/16 11:38:37;;;;;;;1.30;1.00;;;23.40;65.10;;;;;;5039302;28;20809;-40
2023/01/16 11:41:08;;;;;;;2.70;0.90;;;23.30;65.10;;;;;;5041027;28;20823;-40
2023/01/16 11:46:31;;;;;;;1.20;0.70;;;23.30;65.10;;;;;;5034492;28;21178;-39
2023/01/16 11:49:02;;;;;;;1.30;1.00;;;23.30;65.20;;;;;;5036281;28;20966;-39
2023/01/16 11:51:31;;;;;;;4.40;0.90;;;23.30;65.30;;;;;;5038781;28;20595;-39
2023/01/16 11:53:59;;;;;;;6.90;0.80;;;23.30;65.40;;;;;;5037168;28;20454;-39
2023/01/16 11:57:00;;;;;;;1.30;0.90;;;23.30;65.50;;;;;;5040094;28;20482;-40
2023/01/16 11:59:53;;;;;;;3.53;1.00;;;23.30;65.50;;;;;;5007793;28;20476;-40
2023/01/16 12:02:44;;;;;;;0.90;0.67;;;23.30;65.40;;;;;;5035923;28;20464;-40
2023/01/16 12:08:25;;;;;;;1.73;0.70;;;23.30;65.40;;;;;;5038789;28;20454;-39
2023/01/16 12:11:01;;;;;;;3.30;0.80;;;23.30;65.40;;;;;;5039631;28;20795;-42
2023/01/16 12:16:32;;;;;;;2.30;0.83;;;23.40;65.40;;;;;;5039914;28;21115;-42
2023/01/16 12:19:11;;;;;;;1.70;0.73;;;23.30;65.40;;;;;;5040514;28;20513;-44
2023/01/16 12:21:44;;;;;;;1.47;0.90;;;23.30;65.50;;;;;;5040333;28;20937;-43
2023/01/16 12:24:21;;;;;;;2.23;0.87;;;23.30;65.40;;;;;;5038990;28;20850;-40
2023/01/16 12:27:02;;;;;;;5.00;0.97;;;23.30;65.40;;;;;;5037459;28;20490;-41
2023/01/16 12:29:49;;;;;;;0.90;0.70;;;23.30;65.50;;;;;;5039710;28;20519;-41
2023/01/16 12:32:36;;;;;;;1.10;0.77;;;23.30;65.40;;;;;;5039544;28;20554;-40
2023/01/16 12:35:34;;;;;;;1.90;0.67;;;23.30;65.50;;;;;;5038570;28;20488;-40
2023/01/16 12:38:16;;;;;;;1.00;0.80;;;23.30;66.20;;;;;;5027192;28;20515;-42
2023/01/16 12:44:17;;;;;;;1.10;0.80;;;23.30;65.50;;;;;;5041029;28;20871;-40
2023/01/16 12:46:55;;;;;;;1.70;0.75;;;23.30;65.50;;;;;;5036632;28;20460;-40
2023/01/16 12:49:38;;;;;;;1.00;0.70;;;23.30;65.50;;;;;;5037868;28;20198;-40
2023/01/16 12:52:23;;;;;;;0.90;0.70;;;23.40;65.60;;;;;;5035748;28;20964;-38
2023/01/16 12:55:04;;;;;;;0.97;0.70;;;23.40;65.40;;;;;;5039353;28;20488;-39
2023/01/16 12:57:48;;;;;;;0.90;0.70;;;23.40;65.40;;;;;;5040230;28;20456;-44
2023/01/16 13:00:20;;;;;;;1.97;0.80;;;23.40;65.50;;;;;;5040384;28;20478;-44
2023/01/16 13:02:53;;;;;;;1.57;0.97;;;23.40;65.40;;;;;;5034395;28;20522;-44
2023/01/16 13:05:24;;;;;;;0.90;0.70;;;23.50;65.30;;;;;;5036721;28;20471;-42
2023/01/16 13:07:54;;;;;;;0.93;0.70;;;23.50;65.30;;;;;;5040748;28;20797;-41
2023/01/16 13:13:23;;;;;;;2.30;0.80;;;23.50;65.40;;;;;;5038535;28;20479;-42
2023/01/16 13:15:57;;;;;;;1.00;0.77;;;23.50;65.30;;;;;;5039803;28;20511;-41
2023/01/16 13:18:27;;;;;;;0.90;0.70;;;23.50;65.40;;;;;;5039018;28;20881;-41
2023/01/16 13:20:56;;;;;;;0.80;0.60;;;23.50;65.40;;;;;;5038846;28;20514;-40
2023/01/16 13:23:26;;;;;;;0.90;0.70;;;23.50;65.60;;;;;;5039344;28;20468;-37
2023/01/16 13:26:02;;;;;;;1.80;0.90;;;23.50;65.60;;;;;;5038312;28;20494;-40
2023/01/16 13:28:37;;;;;;;1.00;0.70;;;23.50;65.50;;;;;;5040710;28;20745;-38
2023/01/16 13:31:08;;;;;;;1.10;0.80;;;23.50;65.50;;;;;;5035470;28;20838;-39
2023/01/16 13:33:39;;;;;;;1.07;0.60;;;23.50;65.50;;;;;;5038546;28;20494;-39
2023/01/16 13:36:21;;;;;;;1.07;0.80;;;23.50;65.50;;;;;;5039481;28;20559;-39
2023/01/16 13:39:00;;;;;;;0.90;0.70;;;23.50;65.50;;;;;;5038736;28;20463;-39
2023/01/16 13:41:31;;;;;;;1.00;0.70;;;23.50;65.60;;;;;;5038961;28;20452;-40
2023/01/16 13:46:47;;;;;;;1.63;0.70;;;23.50;65.50;;;;;;5039066;28;20500;-41
2023/01/16 13:49:20;;;;;;;0.90;0.63;;;23.50;65.60;;;;;;5039162;28;20483;-41
2023/01/16 13:51:49;;;;;;;1.10;0.80;;;23.20;65.70;;;;;;5039994;28;20470;-44
2023/01/16 13:54:19;;;;;;;1.07;0.80;;;23.00;66.10;;;;;;5041701;28;20234;-44
2023/01/16 13:57:00;;;;;;;1.85;0.90;;;23.00;66.20;;;;;;5039069;28;20479;-44
2023/01/16 13:59:41;;;;;;;3.77;1.10;;;23.40;65.70;;;;;;5038243;28;20227;-43
2023/01/16 14:02:25;;;;;;;3.40;1.08;;;23.50;65.30;;;;;;5040072;28;20459;-40
2023/01/16 14:05:24;;;;;;;2.40;1.07;;;23.60;65.00;;;;;;5027192;28;20197;-40
2023/01/16 14:11:24;;;;;;;1.00;0.87;;;23.50;64.80;;;;;;5039794;28;20450;-40
2023/01/16 14:17:06;;;;;;;1.30;0.80;;;23.50;64.80;;;;;;5038574;28;20480;-40
2023/01/16 14:19:37;;;;;;;1.53;0.97;;;23.50;64.70;;;;;;5037495;28;20524;-42
2023/01/16 14:24:50;;;;;;;0.90;0.60;;;23.40;64.90;;;;;;5037835;28;20448;-41
2023/01/16 14:27:20;;;;;;;4.43;0.77;;;23.50;64.90;;;;;;5041318;28;20941;-41
2023/01/16 14:29:52;;;;;;;3.77;0.90;;;23.50;65.00;;;;;;5039385;28;20998;-41